sensor_id;sensor_type;location;lat;lon;timestamp;P1;P2;P0
46381;PMS5003;66809;52.974;-2.514;2023-04-01T00:01:40;10.316666666666666;9.633333333333333;
46381;PMS5003;66809;52.974;-2.514;2023-04-01T00:03:40;10.433333333333334;9.7;
46381;PMS5003;66809;52.974;-2.514;2023-04-01T00:05:41;10.55;9.833333333333334;
46381;PMS5003;66809;52.974;-2.514;2023-04-01T00:07:40;10.483333333333333;9.766666666666667;
46381;PMS5003;66809;52.974;-2.514;2023-04-01T00:09:40;10.6;9.85;
46381;PMS5003;66809;52.974;-2.514;2023-04-01T00:11:40;10.6;9.816666666666666;
46381;PMS5003;66809;52.974;-2.514;2023-04-01T00:13:40;10.583333333333334;9.8;
46381;PMS5003;66809;52.974;-2.514;2023-04-01T00:15:41;10.566666666666666;9.833333333333334;
46381;PMS5003;66809;52.974;-2.514;2023-04-01T00:17:40;10.566666666666666;9.816666666666666;
46381;PMS5003;66809;52.974;-2.514;2023-04-01T00:19:40;10.516666666666667;9.783333333333333;
46381;PMS5003;66809;52.974;-2.514;2023-04-01T00:21:41;10.45;9.733333333333333;
46381;PMS5003;66809;52.974;-2.514;2023-04-01T00:23:40;10.416666666666666;9.683333333333334;
46381;PMS5003;66809;52.974;-2.514;2023-04-01T00:25:40;10.383333333333333;9.7;
46381;PMS5003;66809;52.974;-2.514;2023-04-01T00:27:40;10.433333333333334;9.75;
46381;PMS5003;66809;52.974;-2.514;2023-04-01T00:29:41;10.333333333333334;9.616666666666667;
46381;PMS5003;66809;52.974;-2.514;2023-04-01T00:31:41;10.15;9.45;
46381;PMS5003;66809;52.974;-2.514;2023-04-01T00:33:40;10.0;9.3;
46381;PMS5003;66809;52.974;-2.514;2023-04-01T00:35:40;9.95;9.266666666666667;
46381;PMS5003;66809;52.974;-2.514;2023-04-01T00:37:41;9.883333333333333;9.2;
46381;PMS5003;66809;52.974;-2.514;2023-04-01T00:39:40;9.816666666666666;9.15;
46381;PMS5003;66809;52.974;-2.514;2023-04-01T00:41:40;9.716666666666667;9.05;
46381;PMS5003;66809;52.974;-2.514;2023-04-01T00:43:41;9.566666666666666;8.9;
46381;PMS5003;66809;52.974;-2.514;2023-04-01T00:45:41;9.433333333333334;8.733333333333333;
46381;PMS5003;66809;52.974;-2.514;2023-04-01T00:47:41;9.216666666666667;8.533333333333333;
46381;PMS5003;66809;52.974;-2.514;2023-04-01T00:49:42;9.116666666666667;8.433333333333334;
46381;PMS5003;66809;52.974;-2.514;2023-04-01T00:51:40;8.933333333333334;8.266666666666667;
46381;PMS5003;66809;52.974;-2.514;2023-04-01T00:53:41;8.8;8.15;
46381;PMS5003;66809;52.974;-2.514;2023-04-01T00:55:41;8.533333333333333;7.933333333333334;
46381;PMS5003;66809;52.974;-2.514;2023-04-01T00:57:41;8.433333333333334;7.866666666666666;
46381;PMS5003;66809;52.974;-2.514;2023-04-01T00:59:41;8.25;7.733333333333333;
46381;PMS5003;66809;52.974;-2.514;2023-04-01T01:01:41;8.016666666666667;7.55;
46381;PMS5003;66809;52.974;-2.514;2023-04-01T01:03:41;7.766666666666667;7.35;
46381;PMS5003;66809;52.974;-2.514;2023-04-01T01:05:46;7.5;7.066666666666666;
46381;PMS5003;66809;52.974;-2.514;2023-04-01T01:07:41;7.4;6.966666666666667;
46381;PMS5003;66809;52.974;-2.514;2023-04-01T01:09:42;7.25;6.816666666666666;
46381;PMS5003;66809;52.974;-2.514;2023-04-01T01:11:42;7.15;6.75;
46381;PMS5003;66809;52.974;-2.514;2023-04-01T01:13:42;7.033333333333333;6.616666666666666;
46381;PMS5003;66809;52.974;-2.514;2023-04-01T01:15:41;6.916666666666667;6.5;
46381;PMS5003;66809;52.974;-2.514;2023-04-01T01:17:44;6.816666666666666;6.416666666666667;
46381;PMS5003;66809;52.974;-2.514;2023-04-01T01:19:47;6.666666666666667;6.266666666666667;
46381;PMS5003;66809;52.974;-2.514;2023-04-01T01:21:50;6.533333333333333;6.133333333333334;
46381;PMS5003;66809;52.974;-2.514;2023-04-01T01:23:58;6.466666666666667;6.066666666666666;
46381;PMS5003;66809;52.974;-2.514;2023-04-01T01:25:40;6.3;5.9;
46381;PMS5003;66809;52.974;-2.514;2023-04-01T01:27:41;6.05;5.65;
46381;PMS5003;66809;52.974;-2.514;2023-04-01T01:30:15;5.9;5.533333333333333;
46381;PMS5003;66809;52.974;-2.514;2023-04-01T01:31:43;5.8;5.433333333333334;
46381;PMS5003;66809;52.974;-2.514;2023-04-01T01:34:15;5.783333333333333;5.433333333333334;
46381;PMS5003;66809;52.974;-2.514;2023-04-01T01:35:41;5.65;5.3;
46381;PMS5003;66809;52.974;-2.514;2023-04-01T01:37:40;5.483333333333333;5.083333333333333;
46381;PMS5003;66809;52.974;-2.514;2023-04-01T01:39:40;5.333333333333333;4.933333333333334;
46381;PMS5003;66809;52.974;-2.514;2023-04-01T01:41:41;5.133333333333334;4.75;
46381;PMS5003;66809;52.974;-2.514;2023-04-01T01:43:42;5.016666666666667;4.616666666666666;
46381;PMS5003;66809;52.974;-2.514;2023-04-01T01:45:42;4.916666666666667;4.55;
46381;PMS5003;66809;52.974;-2.514;2023-04-01T01:47:40;4.866666666666666;4.483333333333333;
46381;PMS5003;66809;52.974;-2.514;2023-04-01T01:49:40;4.783333333333333;4.4;
46381;PMS5003;66809;52.974;-2.514;2023-04-01T01:51:40;4.716666666666667;4.333333333333333;
46381;PMS5003;66809;52.974;-2.514;2023-04-01T01:53:41;4.55;4.2;
46381;PMS5003;66809;52.974;-2.514;2023-04-01T01:55:41;4.466666666666667;4.116666666666666;
46381;PMS5003;66809;52.974;-2.514;2023-04-01T01:57:40;4.283333333333333;3.9833333333333334;
46381;PMS5003;66809;52.974;-2.514;2023-04-01T01:59:40;4.166666666666667;3.8833333333333333;
46381;PMS5003;66809;52.974;-2.514;2023-04-01T02:01:41;4.1;3.816666666666667;
46381;PMS5003;66809;52.974;-2.514;2023-04-01T02:03:40;4.066666666666666;3.783333333333333;
46381;PMS5003;66809;52.974;-2.514;2023-04-01T02:05:40;4.066666666666666;3.7666666666666666;
46381;PMS5003;66809;52.974;-2.514;2023-04-01T02:07:40;4.05;3.75;
46381;PMS5003;66809;52.974;-2.514;2023-04-01T02:09:40;3.966666666666667;3.683333333333333;
46381;PMS5003;66809;52.974;-2.514;2023-04-01T02:11:41;3.8833333333333333;3.6;
46381;PMS5003;66809;52.974;-2.514;2023-04-01T02:13:40;3.816666666666667;3.55;
46381;PMS5003;66809;52.974;-2.514;2023-04-01T02:15:42;3.9166666666666665;3.5833333333333335;
46381;PMS5003;66809;52.974;-2.514;2023-04-01T02:17:42;3.8333333333333335;3.4833333333333334;
46381;PMS5003;66809;52.974;-2.514;2023-04-01T02:19:41;3.85;3.466666666666667;
46381;PMS5003;66809;52.974;-2.514;2023-04-01T02:21:40;3.85;3.4166666666666665;
46381;PMS5003;66809;52.974;-2.514;2023-04-01T02:23:40;3.783333333333333;3.3333333333333335;
46381;PMS5003;66809;52.974;-2.514;2023-04-01T02:25:41;3.7333333333333334;3.3;
46381;PMS5003;66809;52.974;-2.514;2023-04-01T02:27:41;3.7333333333333334;3.3;
46381;PMS5003;66809;52.974;-2.514;2023-04-01T02:29:40;3.716666666666667;3.283333333333333;
46381;PMS5003;66809;52.974;-2.514;2023-04-01T02:31:40;3.7;3.2666666666666666;
46381;PMS5003;66809;52.974;-2.514;2023-04-01T02:33:40;3.566666666666667;3.1333333333333333;
46381;PMS5003;66809;52.974;-2.514;2023-04-01T02:35:40;3.6166666666666667;3.183333333333333;
46381;PMS5003;66809;52.974;-2.514;2023-04-01T02:37:40;3.65;3.2666666666666666;
46381;PMS5003;66809;52.974;-2.514;2023-04-01T02:39:40;3.7333333333333334;3.3333333333333335;
46381;PMS5003;66809;52.974;-2.514;2023-04-01T02:41:40;3.783333333333333;3.4;
46381;PMS5003;66809;52.974;-2.514;2023-04-01T02:43:40;3.8333333333333335;3.45;
46381;PMS5003;66809;52.974;-2.514;2023-04-01T02:45:40;3.9;3.5166666666666666;
46381;PMS5003;66809;52.974;-2.514;2023-04-01T02:47:41;4.0;3.6;
46381;PMS5003;66809;52.974;-2.514;2023-04-01T02:49:40;4.05;3.6166666666666667;
46381;PMS5003;66809;52.974;-2.514;2023-04-01T02:51:40;4.016666666666667;3.6;
46381;PMS5003;66809;52.974;-2.514;2023-04-01T02:53:41;4.066666666666666;3.65;
46381;PMS5003;66809;52.974;-2.514;2023-04-01T02:55:40;4.083333333333333;3.6666666666666665;
46381;PMS5003;66809;52.974;-2.514;2023-04-01T02:57:40;4.166666666666667;3.7333333333333334;
46381;PMS5003;66809;52.974;-2.514;2023-04-01T02:59:41;4.133333333333334;3.7;
46381;PMS5003;66809;52.974;-2.514;2023-04-01T03:01:40;4.116666666666666;3.683333333333333;
46381;PMS5003;66809;52.974;-2.514;2023-04-01T03:03:40;4.183333333333334;3.75;
46381;PMS5003;66809;52.974;-2.514;2023-04-01T03:05:40;4.15;3.783333333333333;
46381;PMS5003;66809;52.974;-2.514;2023-04-01T03:07:40;4.066666666666666;3.7;
46381;PMS5003;66809;52.974;-2.514;2023-04-01T03:09:41;4.066666666666666;3.683333333333333;
46381;PMS5003;66809;52.974;-2.514;2023-04-01T03:11:41;4.116666666666666;3.7;
46381;PMS5003;66809;52.974;-2.514;2023-04-01T03:13:40;4.166666666666667;3.75;
46381;PMS5003;66809;52.974;-2.514;2023-04-01T03:15:41;4.016666666666667;3.683333333333333;
46381;PMS5003;66809;52.974;-2.514;2023-04-01T03:17:41;3.9833333333333334;3.6666666666666665;
46381;PMS5003;66809;52.974;-2.514;2023-04-01T03:19:40;3.966666666666667;3.683333333333333;
46381;PMS5003;66809;52.974;-2.514;2023-04-01T03:21:40;3.933333333333333;3.6666666666666665;
46381;PMS5003;66809;52.974;-2.514;2023-04-01T03:23:41;3.95;3.716666666666667;
46381;PMS5003;66809;52.974;-2.514;2023-04-01T03:25:40;3.95;3.716666666666667;
46381;PMS5003;66809;52.974;-2.514;2023-04-01T03:27:41;3.9833333333333334;3.75;
46381;PMS5003;66809;52.974;-2.514;2023-04-01T03:29:40;4.066666666666666;3.7666666666666666;
46381;PMS5003;66809;52.974;-2.514;2023-04-01T03:31:40;4.05;3.716666666666667;
46381;PMS5003;66809;52.974;-2.514;2023-04-01T03:33:41;4.1;3.716666666666667;
46381;PMS5003;66809;52.974;-2.514;2023-04-01T03:35:40;4.083333333333333;3.7;
46381;PMS5003;66809;52.974;-2.514;2023-04-01T03:37:41;4.083333333333333;3.7;
46381;PMS5003;66809;52.974;-2.514;2023-04-01T03:39:40;4.066666666666666;3.683333333333333;
46381;PMS5003;66809;52.974;-2.514;2023-04-01T03:41:40;4.066666666666666;3.65;
46381;PMS5003;66809;52.974;-2.514;2023-04-01T03:43:40;4.116666666666666;3.7;
46381;PMS5003;66809;52.974;-2.514;2023-04-01T03:45:43;4.116666666666666;3.7;
46381;PMS5003;66809;52.974;-2.514;2023-04-01T03:47:40;4.033333333333333;3.6333333333333333;
46381;PMS5003;66809;52.974;-2.514;2023-04-01T03:49:41;4.083333333333333;3.683333333333333;
46381;PMS5003;66809;52.974;-2.514;2023-04-01T03:51:41;4.066666666666666;3.6666666666666665;
46381;PMS5003;66809;52.974;-2.514;2023-04-01T03:53:41;4.033333333333333;3.6166666666666667;
46381;PMS5003;66809;52.974;-2.514;2023-04-01T03:55:40;4.05;3.6166666666666667;
46381;PMS5003;66809;52.974;-2.514;2023-04-01T03:57:41;4.016666666666667;3.55;
46381;PMS5003;66809;52.974;-2.514;2023-04-01T03:59:40;4.016666666666667;3.55;
46381;PMS5003;66809;52.974;-2.514;2023-04-01T04:01:40;4.05;3.5833333333333335;
46381;PMS5003;66809;52.974;-2.514;2023-04-01T04:03:40;3.9833333333333334;3.4833333333333334;
46381;PMS5003;66809;52.974;-2.514;2023-04-01T04:05:45;4.0;3.5;
46381;PMS5003;66809;52.974;-2.514;2023-04-01T04:07:40;4.033333333333333;3.5166666666666666;
46381;PMS5003;66809;52.974;-2.514;2023-04-01T04:09:40;4.05;3.566666666666667;
46381;PMS5003;66809;52.974;-2.514;2023-04-01T04:11:41;4.066666666666666;3.6;
46381;PMS5003;66809;52.974;-2.514;2023-04-01T04:13:41;4.083333333333333;3.5833333333333335;
46381;PMS5003;66809;52.974;-2.514;2023-04-01T04:15:40;4.1;3.6;
46381;PMS5003;66809;52.974;-2.514;2023-04-01T04:17:41;4.183333333333334;3.683333333333333;
46381;PMS5003;66809;52.974;-2.514;2023-04-01T04:19:41;4.216666666666667;3.7;
46381;PMS5003;66809;52.974;-2.514;2023-04-01T04:21:40;4.183333333333334;3.716666666666667;
46381;PMS5003;66809;52.974;-2.514;2023-04-01T04:23:40;4.183333333333334;3.7;
46381;PMS5003;66809;52.974;-2.514;2023-04-01T04:25:40;4.216666666666667;3.716666666666667;
46381;PMS5003;66809;52.974;-2.514;2023-04-01T04:27:40;4.25;3.75;
46381;PMS5003;66809;52.974;-2.514;2023-04-01T04:29:41;4.183333333333334;3.75;
46381;PMS5003;66809;52.974;-2.514;2023-04-01T04:31:41;4.2;3.8;
46381;PMS5003;66809;52.974;-2.514;2023-04-01T04:33:40;4.216666666666667;3.8666666666666667;
46381;PMS5003;66809;52.974;-2.514;2023-04-01T04:35:40;4.25;3.9;
46381;PMS5003;66809;52.974;-2.514;2023-04-01T04:37:41;4.233333333333333;3.8833333333333333;
46381;PMS5003;66809;52.974;-2.514;2023-04-01T04:39:40;4.183333333333334;3.8333333333333335;
46381;PMS5003;66809;52.974;-2.514;2023-04-01T04:41:40;4.2;3.8666666666666667;
46381;PMS5003;66809;52.974;-2.514;2023-04-01T04:43:41;4.2;3.8666666666666667;
46381;PMS5003;66809;52.974;-2.514;2023-04-01T04:45:41;4.233333333333333;3.85;
46381;PMS5003;66809;52.974;-2.514;2023-04-01T04:47:41;4.283333333333333;3.9166666666666665;
46381;PMS5003;66809;52.974;-2.514;2023-04-01T04:49:40;4.2;3.8666666666666667;
46381;PMS5003;66809;52.974;-2.514;2023-04-01T04:51:41;4.233333333333333;3.8666666666666667;
46381;PMS5003;66809;52.974;-2.514;2023-04-01T04:53:41;4.316666666666666;3.966666666666667;
46381;PMS5003;66809;52.974;-2.514;2023-04-01T04:55:42;4.35;4.0;
46381;PMS5003;66809;52.974;-2.514;2023-04-01T04:57:40;4.366666666666666;4.033333333333333;
46381;PMS5003;66809;52.974;-2.514;2023-04-01T04:59:40;4.433333333333334;4.1;
46381;PMS5003;66809;52.974;-2.514;2023-04-01T05:01:40;4.5;4.133333333333334;
46381;PMS5003;66809;52.974;-2.514;2023-04-01T05:03:41;4.55;4.216666666666667;
46381;PMS5003;66809;52.974;-2.514;2023-04-01T05:05:47;4.55;4.216666666666667;
46381;PMS5003;66809;52.974;-2.514;2023-04-01T05:07:41;4.616666666666666;4.25;
46381;PMS5003;66809;52.974;-2.514;2023-04-01T05:09:40;4.666666666666667;4.25;
46381;PMS5003;66809;52.974;-2.514;2023-04-01T05:11:40;4.7;4.3;
46381;PMS5003;66809;52.974;-2.514;2023-04-01T05:13:41;4.783333333333333;4.383333333333334;
46381;PMS5003;66809;52.974;-2.514;2023-04-01T05:15:40;4.8;4.4;
46381;PMS5003;66809;52.974;-2.514;2023-04-01T05:17:40;4.85;4.416666666666667;
46381;PMS5003;66809;52.974;-2.514;2023-04-01T05:19:41;4.9;4.483333333333333;
46381;PMS5003;66809;52.974;-2.514;2023-04-01T05:21:40;4.95;4.533333333333333;
46381;PMS5003;66809;52.974;-2.514;2023-04-01T05:23:40;4.983333333333333;4.583333333333333;
46381;PMS5003;66809;52.974;-2.514;2023-04-01T05:25:40;5.033333333333333;4.566666666666666;
46381;PMS5003;66809;52.974;-2.514;2023-04-01T05:27:40;5.066666666666666;4.583333333333333;
46381;PMS5003;66809;52.974;-2.514;2023-04-01T05:29:40;5.133333333333334;4.65;
46381;PMS5003;66809;52.974;-2.514;2023-04-01T05:31:40;5.2;4.7;
46381;PMS5003;66809;52.974;-2.514;2023-04-01T05:33:41;5.216666666666667;4.683333333333334;
46381;PMS5003;66809;52.974;-2.514;2023-04-01T05:35:40;5.266666666666667;4.733333333333333;
46381;PMS5003;66809;52.974;-2.514;2023-04-01T05:37:40;5.333333333333333;4.8;
46381;PMS5003;66809;52.974;-2.514;2023-04-01T05:39:41;5.466666666666667;4.9;
46381;PMS5003;66809;52.974;-2.514;2023-04-01T05:41:40;5.466666666666667;4.9;
46381;PMS5003;66809;52.974;-2.514;2023-04-01T05:43:41;5.466666666666667;4.9;
46381;PMS5003;66809;52.974;-2.514;2023-04-01T05:45:40;5.5;4.966666666666667;
46381;PMS5003;66809;52.974;-2.514;2023-04-01T05:47:41;5.483333333333333;4.95;
46381;PMS5003;66809;52.974;-2.514;2023-04-01T05:49:41;5.466666666666667;4.933333333333334;
46381;PMS5003;66809;52.974;-2.514;2023-04-01T05:51:40;5.566666666666666;5.066666666666666;
46381;PMS5003;66809;52.974;-2.514;2023-04-01T05:53:41;5.583333333333333;5.05;
46381;PMS5003;66809;52.974;-2.514;2023-04-01T05:55:41;5.566666666666666;5.0;
46381;PMS5003;66809;52.974;-2.514;2023-04-01T05:57:40;5.6;5.05;
46381;PMS5003;66809;52.974;-2.514;2023-04-01T05:59:40;5.633333333333334;5.083333333333333;
46381;PMS5003;66809;52.974;-2.514;2023-04-01T06:01:41;5.566666666666666;5.033333333333333;
46381;PMS5003;66809;52.974;-2.514;2023-04-01T06:03:40;5.5;4.95;
46381;PMS5003;66809;52.974;-2.514;2023-04-01T06:05:41;5.466666666666667;4.883333333333334;
46381;PMS5003;66809;52.974;-2.514;2023-04-01T06:07:40;5.383333333333334;4.833333333333333;
46381;PMS5003;66809;52.974;-2.514;2023-04-01T06:09:40;5.35;4.8;
46381;PMS5003;66809;52.974;-2.514;2023-04-01T06:11:43;5.333333333333333;4.75;
46381;PMS5003;66809;52.974;-2.514;2023-04-01T06:13:44;5.233333333333333;4.683333333333334;
46381;PMS5003;66809;52.974;-2.514;2023-04-01T06:15:40;5.283333333333333;4.716666666666667;
46381;PMS5003;66809;52.974;-2.514;2023-04-01T06:17:45;5.25;4.7;
46381;PMS5003;66809;52.974;-2.514;2023-04-01T06:19:41;5.2;4.65;
46381;PMS5003;66809;52.974;-2.514;2023-04-01T06:21:48;5.2;4.65;
46381;PMS5003;66809;52.974;-2.514;2023-04-01T06:23:44;5.25;4.666666666666667;
46381;PMS5003;66809;52.974;-2.514;2023-04-01T06:25:43;5.183333333333334;4.65;
46381;PMS5003;66809;52.974;-2.514;2023-04-01T06:27:44;5.116666666666666;4.6;
46381;PMS5003;66809;52.974;-2.514;2023-04-01T06:29:44;5.1;4.583333333333333;
46381;PMS5003;66809;52.974;-2.514;2023-04-01T06:32:01;5.05;4.55;
46381;PMS5003;66809;52.974;-2.514;2023-04-01T06:33:45;5.066666666666666;4.55;
46381;PMS5003;66809;52.974;-2.514;2023-04-01T06:35:44;5.1;4.533333333333333;
46381;PMS5003;66809;52.974;-2.514;2023-04-01T06:37:45;5.05;4.483333333333333;
46381;PMS5003;66809;52.974;-2.514;2023-04-01T06:39:52;5.016666666666667;4.5;
46381;PMS5003;66809;52.974;-2.514;2023-04-01T06:42:47;5.0;4.5;
46381;PMS5003;66809;52.974;-2.514;2023-04-01T06:43:43;4.983333333333333;4.5;
46381;PMS5003;66809;52.974;-2.514;2023-04-01T06:45:41;4.9;4.433333333333334;
46381;PMS5003;66809;52.974;-2.514;2023-04-01T06:47:44;4.866666666666666;4.4;
46381;PMS5003;66809;52.974;-2.514;2023-04-01T06:49:44;4.9;4.433333333333334;
46381;PMS5003;66809;52.974;-2.514;2023-04-01T06:51:42;4.75;4.283333333333333;
46381;PMS5003;66809;52.974;-2.514;2023-04-01T06:53:42;4.666666666666667;4.2;
46381;PMS5003;66809;52.974;-2.514;2023-04-01T06:55:41;4.65;4.216666666666667;
46381;PMS5003;66809;52.974;-2.514;2023-04-01T06:57:41;4.6;4.166666666666667;
46381;PMS5003;66809;52.974;-2.514;2023-04-01T06:59:41;4.55;4.083333333333333;
46381;PMS5003;66809;52.974;-2.514;2023-04-01T07:01:41;4.516666666666667;4.016666666666667;
46381;PMS5003;66809;52.974;-2.514;2023-04-01T07:03:41;4.633333333333334;4.116666666666666;
46381;PMS5003;66809;52.974;-2.514;2023-04-01T07:05:40;4.7;4.2;
46381;PMS5003;66809;52.974;-2.514;2023-04-01T07:07:41;4.783333333333333;4.3;
46381;PMS5003;66809;52.974;-2.514;2023-04-01T07:09:41;4.783333333333333;4.316666666666666;
46381;PMS5003;66809;52.974;-2.514;2023-04-01T07:11:40;4.783333333333333;4.35;
46381;PMS5003;66809;52.974;-2.514;2023-04-01T07:13:41;4.8;4.366666666666666;
46381;PMS5003;66809;52.974;-2.514;2023-04-01T07:15:41;4.75;4.316666666666666;
46381;PMS5003;66809;52.974;-2.514;2023-04-01T07:17:40;4.733333333333333;4.316666666666666;
46381;PMS5003;66809;52.974;-2.514;2023-04-01T07:19:42;4.783333333333333;4.333333333333333;
46381;PMS5003;66809;52.974;-2.514;2023-04-01T07:21:41;4.866666666666666;4.383333333333334;
46381;PMS5003;66809;52.974;-2.514;2023-04-01T07:23:40;4.816666666666666;4.35;
46381;PMS5003;66809;52.974;-2.514;2023-04-01T07:25:42;4.816666666666666;4.383333333333334;
46381;PMS5003;66809;52.974;-2.514;2023-04-01T07:27:40;4.833333333333333;4.4;
46381;PMS5003;66809;52.974;-2.514;2023-04-01T07:29:41;4.9;4.45;
46381;PMS5003;66809;52.974;-2.514;2023-04-01T07:31:48;4.966666666666667;4.483333333333333;
46381;PMS5003;66809;52.974;-2.514;2023-04-01T07:33:42;4.866666666666666;4.433333333333334;
46381;PMS5003;66809;52.974;-2.514;2023-04-01T07:35:41;4.733333333333333;4.316666666666666;
46381;PMS5003;66809;52.974;-2.514;2023-04-01T07:37:43;4.7;4.283333333333333;
46381;PMS5003;66809;52.974;-2.514;2023-04-01T07:39:43;4.65;4.2;
46381;PMS5003;66809;52.974;-2.514;2023-04-01T07:41:44;4.666666666666667;4.166666666666667;
46381;PMS5003;66809;52.974;-2.514;2023-04-01T07:43:44;4.6;4.1;
46381;PMS5003;66809;52.974;-2.514;2023-04-01T07:45:42;4.633333333333334;4.116666666666666;
46381;PMS5003;66809;52.974;-2.514;2023-04-01T07:47:43;4.633333333333334;4.116666666666666;
46381;PMS5003;66809;52.974;-2.514;2023-04-01T07:49:43;4.633333333333334;4.1;
46381;PMS5003;66809;52.974;-2.514;2023-04-01T07:51:42;4.716666666666667;4.15;
46381;PMS5003;66809;52.974;-2.514;2023-04-01T07:53:42;4.716666666666667;4.183333333333334;
46381;PMS5003;66809;52.974;-2.514;2023-04-01T07:55:42;4.733333333333333;4.216666666666667;
46381;PMS5003;66809;52.974;-2.514;2023-04-01T07:57:42;4.716666666666667;4.216666666666667;
46381;PMS5003;66809;52.974;-2.514;2023-04-01T07:59:43;4.7;4.233333333333333;
46381;PMS5003;66809;52.974;-2.514;2023-04-01T08:01:42;4.7;4.283333333333333;
46381;PMS5003;66809;52.974;-2.514;2023-04-01T08:03:45;4.616666666666666;4.216666666666667;
46381;PMS5003;66809;52.974;-2.514;2023-04-01T08:05:41;4.516666666666667;4.133333333333334;
46381;PMS5003;66809;52.974;-2.514;2023-04-01T08:07:42;4.45;4.05;
46381;PMS5003;66809;52.974;-2.514;2023-04-01T08:09:42;4.45;4.05;
46381;PMS5003;66809;52.974;-2.514;2023-04-01T08:11:44;4.45;4.033333333333333;
46381;PMS5003;66809;52.974;-2.514;2023-04-01T08:13:42;4.45;4.016666666666667;
46381;PMS5003;66809;52.974;-2.514;2023-04-01T08:15:42;4.433333333333334;3.9833333333333334;
46381;PMS5003;66809;52.974;-2.514;2023-04-01T08:17:42;4.383333333333334;3.933333333333333;
46381;PMS5003;66809;52.974;-2.514;2023-04-01T08:19:45;4.3;3.8666666666666667;
46381;PMS5003;66809;52.974;-2.514;2023-04-01T08:21:41;4.216666666666667;3.8;
46381;PMS5003;66809;52.974;-2.514;2023-04-01T08:23:42;4.133333333333334;3.7333333333333334;
46381;PMS5003;66809;52.974;-2.514;2023-04-01T08:25:42;4.066666666666666;3.6666666666666665;
46381;PMS5003;66809;52.974;-2.514;2023-04-01T08:27:41;4.05;3.65;
46381;PMS5003;66809;52.974;-2.514;2023-04-01T08:29:42;3.9166666666666665;3.533333333333333;
46381;PMS5003;66809;52.974;-2.514;2023-04-01T08:31:43;3.8833333333333333;3.4833333333333334;
46381;PMS5003;66809;52.974;-2.514;2023-04-01T08:33:40;3.9;3.5;
46381;PMS5003;66809;52.974;-2.514;2023-04-01T08:35:41;3.9166666666666665;3.55;
46381;PMS5003;66809;52.974;-2.514;2023-04-01T08:37:41;3.8833333333333333;3.5166666666666666;
46381;PMS5003;66809;52.974;-2.514;2023-04-01T08:39:41;3.8666666666666667;3.5166666666666666;
46381;PMS5003;66809;52.974;-2.514;2023-04-01T08:41:45;3.816666666666667;3.5166666666666666;
46381;PMS5003;66809;52.974;-2.514;2023-04-01T08:43:44;3.816666666666667;3.5166666666666666;
46381;PMS5003;66809;52.974;-2.514;2023-04-01T08:45:42;3.783333333333333;3.4833333333333334;
46381;PMS5003;66809;52.974;-2.514;2023-04-01T08:47:44;3.7333333333333334;3.433333333333333;
46381;PMS5003;66809;52.974;-2.514;2023-04-01T08:49:44;3.683333333333333;3.4;
46381;PMS5003;66809;52.974;-2.514;2023-04-01T08:51:48;3.65;3.35;
46381;PMS5003;66809;52.974;-2.514;2023-04-01T08:53:47;3.6166666666666667;3.316666666666667;
46381;PMS5003;66809;52.974;-2.514;2023-04-01T08:55:44;3.55;3.25;
46381;PMS5003;66809;52.974;-2.514;2023-04-01T08:57:43;3.4833333333333334;3.183333333333333;
46381;PMS5003;66809;52.974;-2.514;2023-04-01T08:59:45;3.45;3.1;
46381;PMS5003;66809;52.974;-2.514;2023-04-01T09:01:44;3.45;3.1;
46381;PMS5003;66809;52.974;-2.514;2023-04-01T09:04:14;3.3333333333333335;3.0;
46381;PMS5003;66809;52.974;-2.514;2023-04-01T09:05:45;3.316666666666667;2.9833333333333334;
46381;PMS5003;66809;52.974;-2.514;2023-04-01T09:07:42;3.3;2.95;
46381;PMS5003;66809;52.974;-2.514;2023-04-01T09:09:45;3.466666666666667;3.0833333333333335;
46381;PMS5003;66809;52.974;-2.514;2023-04-01T09:11:44;3.8666666666666667;3.45;
46381;PMS5003;66809;52.974;-2.514;2023-04-01T09:13:49;4.016666666666667;3.566666666666667;
46381;PMS5003;66809;52.974;-2.514;2023-04-01T09:16:52;5.8;5.316666666666666;
46381;PMS5003;66809;52.974;-2.514;2023-04-01T09:17:44;6.55;6.033333333333333;
46381;PMS5003;66809;52.974;-2.514;2023-04-01T09:19:44;9.85;9.25;
46381;PMS5003;66809;52.974;-2.514;2023-04-01T09:21:45;10.066666666666666;9.433333333333334;
46381;PMS5003;66809;52.974;-2.514;2023-04-01T09:23:46;11.0;10.316666666666666;
46381;PMS5003;66809;52.974;-2.514;2023-04-01T09:25:51;11.266666666666667;10.583333333333334;
46381;PMS5003;66809;52.974;-2.514;2023-04-01T09:27:43;11.55;10.766666666666667;
46381;PMS5003;66809;52.974;-2.514;2023-04-01T09:29:48;11.9;11.116666666666667;
46381;PMS5003;66809;52.974;-2.514;2023-04-01T09:31:44;12.883333333333333;12.05;
46381;PMS5003;66809;52.974;-2.514;2023-04-01T09:33:46;13.2;12.35;
46381;PMS5003;66809;52.974;-2.514;2023-04-01T09:35:42;13.233333333333333;12.35;
46381;PMS5003;66809;52.974;-2.514;2023-04-01T09:37:41;13.4;12.483333333333333;
46381;PMS5003;66809;52.974;-2.514;2023-04-01T09:39:41;15.316666666666666;14.366666666666667;
46381;PMS5003;66809;52.974;-2.514;2023-04-01T09:41:41;15.783333333333333;14.8;
46381;PMS5003;66809;52.974;-2.514;2023-04-01T09:43:45;18.05;16.883333333333333;
46381;PMS5003;66809;52.974;-2.514;2023-04-01T09:45:42;19.233333333333334;18.0;
46381;PMS5003;66809;52.974;-2.514;2023-04-01T09:47:43;19.483333333333334;18.233333333333334;